sensor_id;sensor_type;location;lat;lon;timestamp;P1;durP1;ratioP1;P2;durP2;ratioP2
16967;SDS011;8600;54.338;10.128;2022-09-09T00:00:32;87.40;;;42.95;;
16967;SDS011;8600;54.338;10.128;2022-09-09T00:03:04;88.53;;;44.47;;
16967;SDS011;8600;54.338;10.128;2022-09-09T00:05:38;86.72;;;43.40;;
16967;SDS011;8600;54.338;10.128;2022-09-09T00:08:11;93.10;;;44.15;;
16967;SDS011;8600;54.338;10.128;2022-09-09T00:10:46;90.07;;;44.05;;
16967;SDS011;8600;54.338;10.128;2022-09-09T00:13:19;85.00;;;42.95;;
16967;SDS011;8600;54.338;10.128;2022-09-09T00:15:53;92.35;;;44.35;;
16967;SDS011;8600;54.338;10.128;2022-09-09T00:18:24;93.10;;;44.70;;
16967;SDS011;8600;54.338;10.128;2022-09-09T00:20:57;89.85;;;45.08;;
16967;SDS011;8600;54.338;10.128;2022-09-09T00:23:28;95.10;;;46.10;;
16967;SDS011;8600;54.338;10.128;2022-09-09T00:26:01;92.35;;;45.90;;
16967;SDS011;8600;54.338;10.128;2022-09-09T00:28:33;92.55;;;45.42;;
16967;SDS011;8600;54.338;10.128;2022-09-09T00:33:36;92.97;;;45.45;;
16967;SDS011;8600;54.338;10.128;2022-09-09T00:36:07;97.95;;;47.65;;
16967;SDS011;8600;54.338;10.128;2022-09-09T00:38:42;93.55;;;46.35;;
16967;SDS011;8600;54.338;10.128;2022-09-09T00:41:14;99.97;;;49.10;;
16967;SDS011;8600;54.338;10.128;2022-09-09T00:43:47;97.28;;;48.15;;
16967;SDS011;8600;54.338;10.128;2022-09-09T00:46:34;101.15;;;50.10;;
16967;SDS011;8600;54.338;10.128;2022-09-09T00:49:20;101.55;;;49.88;;
16967;SDS011;8600;54.338;10.128;2022-09-09T00:51:57;102.53;;;49.30;;
16967;SDS011;8600;54.338;10.128;2022-09-09T00:54:38;102.68;;;49.85;;
16967;SDS011;8600;54.338;10.128;2022-09-09T00:57:16;94.28;;;46.95;;
16967;SDS011;8600;54.338;10.128;2022-09-09T00:59:55;101.35;;;48.67;;
16967;SDS011;8600;54.338;10.128;2022-09-09T01:02:27;102.20;;;50.60;;
16967;SDS011;8600;54.338;10.128;2022-09-09T01:04:58;96.78;;;48.47;;
16967;SDS011;8600;54.338;10.128;2022-09-09T01:07:28;95.35;;;48.03;;
16967;SDS011;8600;54.338;10.128;2022-09-09T01:09:55;91.72;;;48.35;;
16967;SDS011;8600;54.338;10.128;2022-09-09T01:12:27;91.43;;;45.58;;
16967;SDS011;8600;54.338;10.128;2022-09-09T01:15:07;86.30;;;45.50;;
16967;SDS011;8600;54.338;10.128;2022-09-09T01:17:53;87.30;;;46.20;;
16967;SDS011;8600;54.338;10.128;2022-09-09T01:23:04;87.63;;;45.15;;
16967;SDS011;8600;54.338;10.128;2022-09-09T01:26:13;86.53;;;44.90;;
16967;SDS011;8600;54.338;10.128;2022-09-09T01:28:46;88.53;;;45.47;;
16967;SDS011;8600;54.338;10.128;2022-09-09T01:31:17;87.43;;;43.65;;
16967;SDS011;8600;54.338;10.128;2022-09-09T01:33:47;78.55;;;42.50;;
16967;SDS011;8600;54.338;10.128;2022-09-09T01:36:16;72.50;;;41.25;;
16967;SDS011;8600;54.338;10.128;2022-09-09T01:38:51;80.90;;;43.72;;
16967;SDS011;8600;54.338;10.128;2022-09-09T01:41:19;86.05;;;43.63;;
16967;SDS011;8600;54.338;10.128;2022-09-09T01:43:58;83.03;;;43.22;;
16967;SDS011;8600;54.338;10.128;2022-09-09T01:46:27;77.35;;;41.15;;
16967;SDS011;8600;54.338;10.128;2022-09-09T01:48:56;78.78;;;41.63;;
16967;SDS011;8600;54.338;10.128;2022-09-09T01:51:25;77.30;;;41.47;;
16967;SDS011;8600;54.338;10.128;2022-09-09T01:53:53;74.97;;;40.95;;
16967;SDS011;8600;54.338;10.128;2022-09-09T01:56:31;70.32;;;40.00;;
16967;SDS011;8600;54.338;10.128;2022-09-09T01:59:12;72.97;;;40.40;;
16967;SDS011;8600;54.338;10.128;2022-09-09T02:01:57;76.13;;;39.13;;
16967;SDS011;8600;54.338;10.128;2022-09-09T02:04:36;73.78;;;40.22;;
16967;SDS011;8600;54.338;10.128;2022-09-09T02:07:15;74.13;;;40.60;;
16967;SDS011;8600;54.338;10.128;2022-09-09T02:09:55;79.38;;;40.78;;
16967;SDS011;8600;54.338;10.128;2022-09-09T02:12:28;80.15;;;40.13;;
16967;SDS011;8600;54.338;10.128;2022-09-09T02:15:00;78.25;;;40.20;;
16967;SDS011;8600;54.338;10.128;2022-09-09T02:17:40;76.85;;;39.22;;
16967;SDS011;8600;54.338;10.128;2022-09-09T02:20:12;77.57;;;39.33;;
16967;SDS011;8600;54.338;10.128;2022-09-09T02:22:45;74.15;;;39.55;;
16967;SDS011;8600;54.338;10.128;2022-09-09T02:25:19;70.40;;;38.40;;
16967;SDS011;8600;54.338;10.128;2022-09-09T02:27:51;77.80;;;39.15;;
16967;SDS011;8600;54.338;10.128;2022-09-09T02:30:18;70.47;;;38.10;;
16967;SDS011;8600;54.338;10.128;2022-09-09T02:32:51;73.53;;;38.67;;
16967;SDS011;8600;54.338;10.128;2022-09-09T02:35:25;69.93;;;37.95;;
16967;SDS011;8600;54.338;10.128;2022-09-09T02:37:56;74.22;;;38.65;;
16967;SDS011;8600;54.338;10.128;2022-09-09T02:40:28;71.95;;;38.58;;
16967;SDS011;8600;54.338;10.128;2022-09-09T02:43:00;73.20;;;38.70;;
16967;SDS011;8600;54.338;10.128;2022-09-09T02:45:31;69.50;;;37.20;;
16967;SDS011;8600;54.338;10.128;2022-09-09T02:48:05;64.90;;;35.90;;
16967;SDS011;8600;54.338;10.128;2022-09-09T02:50:39;70.90;;;36.95;;
16967;SDS011;8600;54.338;10.128;2022-09-09T02:53:16;69.43;;;36.08;;
16967;SDS011;8600;54.338;10.128;2022-09-09T02:55:47;72.30;;;37.20;;
16967;SDS011;8600;54.338;10.128;2022-09-09T02:58:20;77.65;;;40.65;;
16967;SDS011;8600;54.338;10.128;2022-09-09T03:01:02;81.85;;;39.90;;
16967;SDS011;8600;54.338;10.128;2022-09-09T03:03:29;84.97;;;41.22;;
16967;SDS011;8600;54.338;10.128;2022-09-09T03:05:59;87.70;;;42.15;;
16967;SDS011;8600;54.338;10.128;2022-09-09T03:08:27;92.93;;;43.78;;
16967;SDS011;8600;54.338;10.128;2022-09-09T03:10:57;95.22;;;44.78;;
16967;SDS011;8600;54.338;10.128;2022-09-09T03:13:29;99.13;;;44.55;;
16967;SDS011;8600;54.338;10.128;2022-09-09T03:15:55;96.55;;;45.28;;
16967;SDS011;8600;54.338;10.128;2022-09-09T03:18:22;110.60;;;46.65;;
16967;SDS011;8600;54.338;10.128;2022-09-09T03:20:52;122.35;;;48.65;;
16967;SDS011;8600;54.338;10.128;2022-09-09T03:23:20;112.55;;;47.47;;
16967;SDS011;8600;54.338;10.128;2022-09-09T03:25:48;110.22;;;46.50;;
16967;SDS011;8600;54.338;10.128;2022-09-09T03:28:19;110.55;;;49.53;;
16967;SDS011;8600;54.338;10.128;2022-09-09T03:30:50;112.18;;;48.33;;
16967;SDS011;8600;54.338;10.128;2022-09-09T03:33:19;111.93;;;47.28;;
16967;SDS011;8600;54.338;10.128;2022-09-09T03:35:46;115.88;;;47.92;;
16967;SDS011;8600;54.338;10.128;2022-09-09T03:38:14;125.80;;;51.42;;
16967;SDS011;8600;54.338;10.128;2022-09-09T03:40:48;134.73;;;51.83;;
16967;SDS011;8600;54.338;10.128;2022-09-09T03:43:16;124.85;;;50.45;;
16967;SDS011;8600;54.338;10.128;2022-09-09T03:45:45;132.38;;;51.22;;
16967;SDS011;8600;54.338;10.128;2022-09-09T03:48:14;137.80;;;53.13;;
16967;SDS011;8600;54.338;10.128;2022-09-09T03:50:43;141.38;;;53.33;;
16967;SDS011;8600;54.338;10.128;2022-09-09T03:53:11;135.43;;;50.85;;
16967;SDS011;8600;54.338;10.128;2022-09-09T03:55:38;134.10;;;52.88;;
16967;SDS011;8600;54.338;10.128;2022-09-09T03:58:06;146.93;;;53.20;;
16967;SDS011;8600;54.338;10.128;2022-09-09T04:00:36;143.30;;;53.60;;
16967;SDS011;8600;54.338;10.128;2022-09-09T04:03:05;145.48;;;52.50;;
16967;SDS011;8600;54.338;10.128;2022-09-09T04:05:33;153.05;;;53.92;;
16967;SDS011;8600;54.338;10.128;2022-09-09T04:08:00;146.35;;;52.75;;
16967;SDS011;8600;54.338;10.128;2022-09-09T04:10:28;158.93;;;54.65;;
16967;SDS011;8600;54.338;10.128;2022-09-09T04:12:56;146.43;;;52.88;;
16967;SDS011;8600;54.338;10.128;2022-09-09T04:15:23;151.48;;;53.10;;
16967;SDS011;8600;54.338;10.128;2022-09-09T04:17:50;145.32;;;53.38;;
16967;SDS011;8600;54.338;10.128;2022-09-09T04:20:17;145.13;;;50.65;;
16967;SDS011;8600;54.338;10.128;2022-09-09T04:22:45;139.57;;;48.92;;
16967;SDS011;8600;54.338;10.128;2022-09-09T04:25:13;124.22;;;46.67;;
16967;SDS011;8600;54.338;10.128;2022-09-09T04:27:40;122.82;;;46.45;;
16967;SDS011;8600;54.338;10.128;2022-09-09T04:30:09;124.28;;;46.13;;
16967;SDS011;8600;54.338;10.128;2022-09-09T04:32:39;113.68;;;45.33;;
16967;SDS011;8600;54.338;10.128;2022-09-09T04:35:06;113.20;;;43.53;;
16967;SDS011;8600;54.338;10.128;2022-09-09T04:37:33;114.00;;;43.97;;
16967;SDS011;8600;54.338;10.128;2022-09-09T04:40:02;108.15;;;44.05;;
16967;SDS011;8600;54.338;10.128;2022-09-09T04:42:32;123.63;;;45.03;;
16967;SDS011;8600;54.338;10.128;2022-09-09T04:45:01;113.20;;;44.47;;
16967;SDS011;8600;54.338;10.128;2022-09-09T04:47:28;114.40;;;44.40;;
16967;SDS011;8600;54.338;10.128;2022-09-09T04:49:55;115.88;;;45.65;;
16967;SDS011;8600;54.338;10.128;2022-09-09T04:52:22;115.28;;;46.10;;
16967;SDS011;8600;54.338;10.128;2022-09-09T04:54:49;113.40;;;45.20;;
16967;SDS011;8600;54.338;10.128;2022-09-09T04:57:20;109.50;;;45.90;;
16967;SDS011;8600;54.338;10.128;2022-09-09T04:59:47;112.93;;;45.65;;
16967;SDS011;8600;54.338;10.128;2022-09-09T05:02:14;109.43;;;45.40;;
16967;SDS011;8600;54.338;10.128;2022-09-09T05:04:41;112.85;;;45.63;;
16967;SDS011;8600;54.338;10.128;2022-09-09T05:07:09;107.05;;;45.45;;
16967;SDS011;8600;54.338;10.128;2022-09-09T05:09:38;107.82;;;45.00;;
16967;SDS011;8600;54.338;10.128;2022-09-09T05:12:06;110.57;;;45.30;;
16967;SDS011;8600;54.338;10.128;2022-09-09T05:14:36;103.45;;;44.53;;
16967;SDS011;8600;54.338;10.128;2022-09-09T05:17:04;104.13;;;45.40;;
16967;SDS011;8600;54.338;10.128;2022-09-09T05:19:32;107.68;;;46.70;;
16967;SDS011;8600;54.338;10.128;2022-09-09T05:22:00;106.88;;;45.92;;
16967;SDS011;8600;54.338;10.128;2022-09-09T05:24:35;103.00;;;45.65;;
16967;SDS011;8600;54.338;10.128;2022-09-09T05:27:03;112.95;;;47.92;;
16967;SDS011;8600;54.338;10.128;2022-09-09T05:29:31;104.55;;;45.53;;
16967;SDS011;8600;54.338;10.128;2022-09-09T05:32:01;106.95;;;46.05;;
16967;SDS011;8600;54.338;10.128;2022-09-09T05:34:29;102.63;;;45.53;;
16967;SDS011;8600;54.338;10.128;2022-09-09T05:36:56;109.65;;;46.88;;
16967;SDS011;8600;54.338;10.128;2022-09-09T05:39:24;103.80;;;44.88;;
16967;SDS011;8600;54.338;10.128;2022-09-09T05:41:51;106.10;;;45.83;;
16967;SDS011;8600;54.338;10.128;2022-09-09T05:44:18;102.03;;;44.83;;
16967;SDS011;8600;54.338;10.128;2022-09-09T05:46:46;97.80;;;44.08;;
16967;SDS011;8600;54.338;10.128;2022-09-09T05:49:14;96.82;;;43.97;;
16967;SDS011;8600;54.338;10.128;2022-09-09T05:51:43;94.90;;;44.33;;
16967;SDS011;8600;54.338;10.128;2022-09-09T05:54:12;88.90;;;41.95;;
16967;SDS011;8600;54.338;10.128;2022-09-09T05:56:42;98.18;;;43.85;;
16967;SDS011;8600;54.338;10.128;2022-09-09T05:59:09;88.63;;;41.28;;
16967;SDS011;8600;54.338;10.128;2022-09-09T06:01:38;90.57;;;42.63;;
16967;SDS011;8600;54.338;10.128;2022-09-09T06:04:07;89.40;;;43.30;;
16967;SDS011;8600;54.338;10.128;2022-09-09T06:06:38;91.63;;;42.95;;
16967;SDS011;8600;54.338;10.128;2022-09-09T06:09:16;94.15;;;43.60;;
16967;SDS011;8600;54.338;10.128;2022-09-09T06:11:43;95.80;;;44.78;;
16967;SDS011;8600;54.338;10.128;2022-09-09T06:14:12;91.13;;;42.92;;
16967;SDS011;8600;54.338;10.128;2022-09-09T06:16:39;97.38;;;44.05;;
16967;SDS011;8600;54.338;10.128;2022-09-09T06:19:19;95.63;;;42.03;;
16967;SDS011;8600;54.338;10.128;2022-09-09T06:21:48;92.80;;;42.30;;
16967;SDS011;8600;54.338;10.128;2022-09-09T06:24:15;96.03;;;42.13;;
16967;SDS011;8600;54.338;10.128;2022-09-09T06:26:44;99.88;;;41.75;;
16967;SDS011;8600;54.338;10.128;2022-09-09T06:29:16;96.78;;;42.70;;
16967;SDS011;8600;54.338;10.128;2022-09-09T06:31:43;101.40;;;41.83;;
16967;SDS011;8600;54.338;10.128;2022-09-09T06:34:25;99.65;;;42.15;;
16967;SDS011;8600;54.338;10.128;2022-09-09T06:36:56;95.57;;;42.45;;
16967;SDS011;8600;54.338;10.128;2022-09-09T06:39:37;99.60;;;40.45;;
16967;SDS011;8600;54.338;10.128;2022-09-09T06:42:05;102.97;;;43.38;;
16967;SDS011;8600;54.338;10.128;2022-09-09T06:44:45;96.50;;;41.42;;
16967;SDS011;8600;54.338;10.128;2022-09-09T06:47:42;101.25;;;41.88;;
16967;SDS011;8600;54.338;10.128;2022-09-09T06:50:09;105.28;;;42.45;;
16967;SDS011;8600;54.338;10.128;2022-09-09T06:52:38;104.32;;;43.03;;
16967;SDS011;8600;54.338;10.128;2022-09-09T06:55:07;104.22;;;43.00;;
16967;SDS011;8600;54.338;10.128;2022-09-09T06:57:35;105.63;;;43.20;;
16967;SDS011;8600;54.338;10.128;2022-09-09T07:00:03;110.18;;;42.30;;
16967;SDS011;8600;54.338;10.128;2022-09-09T07:02:30;103.20;;;42.67;;
16967;SDS011;8600;54.338;10.128;2022-09-09T07:05:04;90.07;;;40.50;;
16967;SDS011;8600;54.338;10.128;2022-09-09T07:07:33;89.15;;;39.78;;
16967;SDS011;8600;54.338;10.128;2022-09-09T07:10:02;89.72;;;41.28;;
16967;SDS011;8600;54.338;10.128;2022-09-09T07:12:30;86.80;;;39.10;;
16967;SDS011;8600;54.338;10.128;2022-09-09T07:14:58;83.55;;;38.30;;
16967;SDS011;8600;54.338;10.128;2022-09-09T07:17:25;79.18;;;38.22;;
16967;SDS011;8600;54.338;10.128;2022-09-09T07:19:54;75.82;;;38.50;;
16967;SDS011;8600;54.338;10.128;2022-09-09T07:22:22;80.78;;;36.97;;
16967;SDS011;8600;54.338;10.128;2022-09-09T07:24:51;74.32;;;36.97;;
16967;SDS011;8600;54.338;10.128;2022-09-09T07:27:19;72.55;;;35.90;;
16967;SDS011;8600;54.338;10.128;2022-09-09T07:29:47;62.33;;;33.65;;
16967;SDS011;8600;54.338;10.128;2022-09-09T07:32:14;62.80;;;35.08;;
16967;SDS011;8600;54.338;10.128;2022-09-09T07:34:42;63.97;;;34.00;;
16967;SDS011;8600;54.338;10.128;2022-09-09T07:37:09;61.80;;;33.25;;
16967;SDS011;8600;54.338;10.128;2022-09-09T07:39:38;59.67;;;32.90;;
16967;SDS011;8600;54.338;10.128;2022-09-09T07:42:06;53.45;;;31.48;;
16967;SDS011;8600;54.338;10.128;2022-09-09T07:44:37;56.85;;;32.22;;
16967;SDS011;8600;54.338;10.128;2022-09-09T07:47:13;55.47;;;31.92;;
16967;SDS011;8600;54.338;10.128;2022-09-09T07:49:44;54.00;;;32.35;;
16967;SDS011;8600;54.338;10.128;2022-09-09T07:52:14;53.25;;;32.13;;
16967;SDS011;8600;54.338;10.128;2022-09-09T07:54:44;53.40;;;32.00;;
16967;SDS011;8600;54.338;10.128;2022-09-09T07:57:12;49.90;;;31.02;;
16967;SDS011;8600;54.338;10.128;2022-09-09T07:59:42;51.47;;;31.23;;
16967;SDS011;8600;54.338;10.128;2022-09-09T08:02:11;51.15;;;30.95;;
16967;SDS011;8600;54.338;10.128;2022-09-09T08:04:39;50.95;;;31.77;;
16967;SDS011;8600;54.338;10.128;2022-09-09T08:07:06;50.83;;;31.40;;
16967;SDS011;8600;54.338;10.128;2022-09-09T08:09:40;54.22;;;31.88;;
16967;SDS011;8600;54.338;10.128;2022-09-09T08:12:13;51.85;;;30.85;;
16967;SDS011;8600;54.338;10.128;2022-09-09T08:14:40;49.72;;;29.52;;
16967;SDS011;8600;54.338;10.128;2022-09-09T08:17:08;45.78;;;28.60;;
16967;SDS011;8600;54.338;10.128;2022-09-09T08:19:36;44.65;;;27.95;;
16967;SDS011;8600;54.338;10.128;2022-09-09T08:22:09;43.63;;;26.85;;
16967;SDS011;8600;54.338;10.128;2022-09-09T08:24:38;41.78;;;27.17;;
16967;SDS011;8600;54.338;10.128;2022-09-09T08:27:07;42.25;;;25.58;;
16967;SDS011;8600;54.338;10.128;2022-09-09T08:29:35;40.55;;;24.50;;
16967;SDS011;8600;54.338;10.128;2022-09-09T08:32:03;40.03;;;24.23;;
16967;SDS011;8600;54.338;10.128;2022-09-09T08:34:31;37.80;;;24.25;;
16967;SDS011;8600;54.338;10.128;2022-09-09T08:37:03;37.65;;;24.00;;
16967;SDS011;8600;54.338;10.128;2022-09-09T08:39:36;41.00;;;23.77;;
16967;SDS011;8600;54.338;10.128;2022-09-09T08:42:10;36.33;;;23.23;;
16967;SDS011;8600;54.338;10.128;2022-09-09T08:45:04;35.58;;;21.48;;
16967;SDS011;8600;54.338;10.128;2022-09-09T08:47:47;32.97;;;20.20;;
16967;SDS011;8600;54.338;10.128;2022-09-09T08:50:28;31.25;;;21.10;;
16967;SDS011;8600;54.338;10.128;2022-09-09T08:53:03;32.95;;;21.25;;
16967;SDS011;8600;54.338;10.128;2022-09-09T08:55:37;33.42;;;20.38;;
16967;SDS011;8600;54.338;10.128;2022-09-09T08:58:12;32.45;;;21.15;;
16967;SDS011;8600;54.338;10.128;2022-09-09T09:03:15;29.48;;;20.85;;
16967;SDS011;8600;54.338;10.128;2022-09-09T09:05:51;35.92;;;19.77;;
16967;SDS011;8600;54.338;10.128;2022-09-09T09:08:28;29.38;;;20.42;;
16967;SDS011;8600;54.338;10.128;2022-09-09T09:11:04;31.08;;;20.70;;
16967;SDS011;8600;54.338;10.128;2022-09-09T09:13:34;28.05;;;20.73;;
16967;SDS011;8600;54.338;10.128;2022-09-09T09:16:09;28.85;;;20.65;;
16967;SDS011;8600;54.338;10.128;2022-09-09T09:18:42;30.45;;;20.83;;
16967;SDS011;8600;54.338;10.128;2022-09-09T09:21:12;31.50;;;21.13;;
16967;SDS011;8600;54.338;10.128;2022-09-09T09:23:45;29.75;;;20.38;;
16967;SDS011;8600;54.338;10.128;2022-09-09T09:26:18;25.70;;;18.85;;
16967;SDS011;8600;54.338;10.128;2022-09-09T09:28:47;29.60;;;20.33;;
16967;SDS011;8600;54.338;10.128;2022-09-09T09:31:15;31.10;;;20.30;;
16967;SDS011;8600;54.338;10.128;2022-09-09T09:33:47;24.52;;;18.85;;
16967;SDS011;8600;54.338;10.128;2022-09-09T09:36:19;26.40;;;18.85;;
16967;SDS011;8600;54.338;10.128;2022-09-09T09:38:54;22.10;;;18.23;;
16967;SDS011;8600;54.338;10.128;2022-09-09T09:41:29;26.03;;;17.63;;
16967;SDS011;8600;54.338;10.128;2022-09-09T09:44:00;25.58;;;18.63;;
16967;SDS011;8600;54.338;10.128;2022-09-09T09:46:28;26.23;;;18.08;;
16967;SDS011;8600;54.338;10.128;2022-09-09T09:49:08;23.73;;;17.88;;
16967;SDS011;8600;54.338;10.128;2022-09-09T09:51:40;25.30;;;18.88;;
16967;SDS011;8600;54.338;10.128;2022-09-09T09:54:09;23.00;;;17.55;;
16967;SDS011;8600;54.338;10.128;2022-09-09T09:56:48;25.27;;;18.65;;
16967;SDS011;8600;54.338;10.128;2022-09-09T09:59:21;25.23;;;18.30;;
16967;SDS011;8600;54.338;10.128;2022-09-09T10:01:50;22.45;;;19.08;;
16967;SDS011;8600;54.338;10.128;2022-09-09T10:04:19;23.10;;;19.95;;
16967;SDS011;8600;54.338;10.128;2022-09-09T10:06:52;21.60;;;17.90;;
16967;SDS011;8600;54.338;10.128;2022-09-09T10:09:23;19.30;;;15.70;;
16967;SDS011;8600;54.338;10.128;2022-09-09T10:11:53;18.73;;;13.77;;
16967;SDS011;8600;54.338;10.128;2022-09-09T10:14:30;15.20;;;11.70;;
16967;SDS011;8600;54.338;10.128;2022-09-09T10:17:12;18.95;;;12.15;;
16967;SDS011;8600;54.338;10.128;2022-09-09T10:19:51;17.00;;;12.15;;
16967;SDS011;8600;54.338;10.128;2022-09-09T10:22:30;13.85;;;10.80;;
16967;SDS011;8600;54.338;10.128;2022-09-09T10:27:55;13.35;;;10.43;;
16967;SDS011;8600;54.338;10.128;2022-09-09T10:30:36;13.82;;;10.35;;
16967;SDS011;8600;54.338;10.128;2022-09-09T10:33:16;14.25;;;10.18;;
16967;SDS011;8600;54.338;10.128;2022-09-09T10:35:53;13.32;;;9.25;;
16967;SDS011;8600;54.338;10.128;2022-09-09T10:38:30;10.98;;;8.15;;
16967;SDS011;8600;54.338;10.128;2022-09-09T10:41:11;11.00;;;8.40;;
16967;SDS011;8600;54.338;10.128;2022-09-09T10:43:46;11.32;;;8.70;;
16967;SDS011;8600;54.338;10.128;2022-09-09T10:46:25;10.85;;;6.82;;
16967;SDS011;8600;54.338;10.128;2022-09-09T10:49:03;7.07;;;5.50;;
16967;SDS011;8600;54.338;10.128;2022-09-09T10:51:43;7.90;;;5.60;;
16967;SDS011;8600;54.338;10.128;2022-09-09T10:54:28;8.85;;;5.63;;
16967;SDS011;8600;54.338;10.128;2022-09-09T10:57:08;9.00;;;3.78;;
16967;SDS011;8600;54.338;10.128;2022-09-09T10:59:40;6.43;;;3.03;;
16967;SDS011;8600;54.338;10.128;2022-09-09T11:02:12;5.13;;;3.13;;
16967;SDS011;8600;54.338;10.128;2022-09-09T11:04:45;7.90;;;3.55;;
16967;SDS011;8600;54.338;10.128;2022-09-09T11:07:20;5.85;;;3.00;;
16967;SDS011;8600;54.338;10.128;2022-09-09T11:09:54;7.65;;;4.10;;
16967;SDS011;8600;54.338;10.128;2022-09-09T11:12:27;6.15;;;2.70;;
16967;SDS011;8600;54.338;10.128;2022-09-09T11:14:57;6.45;;;3.10;;
16967;SDS011;8600;54.338;10.128;2022-09-09T11:17:33;7.10;;;3.03;;
16967;SDS011;8600;54.338;10.128;2022-09-09T11:20:06;7.82;;;2.30;;
16967;SDS011;8600;54.338;10.128;2022-09-09T11:22:39;5.55;;;2.20;;
16967;SDS011;8600;54.338;10.128;2022-09-09T11:25:16;4.68;;;2.13;;
16967;SDS011;8600;54.338;10.128;2022-09-09T11:27:50;5.63;;;1.83;;
16967;SDS011;8600;54.338;10.128;2022-09-09T11:30:36;6.43;;;1.58;;
16967;SDS011;8600;54.338;10.128;2022-09-09T11:36:31;5.05;;;1.50;;
16967;SDS011;8600;54.338;10.128;2022-09-09T11:39:18;4.35;;;1.55;;
16967;SDS011;8600;54.338;10.128;2022-09-09T11:42:12;4.72;;;1.40;;
16967;SDS011;8600;54.338;10.128;2022-09-09T11:44:49;2.40;;;1.00;;
16967;SDS011;8600;54.338;10.128;2022-09-09T11:47:19;4.13;;;0.98;;
16967;SDS011;8600;54.338;10.128;2022-09-09T11:49:49;3.38;;;1.00;;
16967;SDS011;8600;54.338;10.128;2022-09-09T11:52:20;2.45;;;0.90;;
16967;SDS011;8600;54.338;10.128;2022-09-09T11:54:50;3.90;;;1.00;;
16967;SDS011;8600;54.338;10.128;2022-09-09T11:57:24;4.20;;;1.27;;
16967;SDS011;8600;54.338;10.128;2022-09-09T11:59:53;2.92;;;1.08;;
16967;SDS011;8600;54.338;10.128;2022-09-09T12:02:22;2.90;;;0.90;;
16967;SDS011;8600;54.338;10.128;2022-09-09T12:04:54;5.80;;;1.23;;
16967;SDS011;8600;54.338;10.128;2022-09-09T12:07:28;4.20;;;1.27;;
16967;SDS011;8600;54.338;10.128;2022-09-09T12:10:01;5.18;;;1.27;;
16967;SDS011;8600;54.338;10.128;2022-09-09T12:12:34;7.85;;;2.47;;
16967;SDS011;8600;54.338;10.128;2022-09-09T12:15:24;4.22;;;1.17;;
16967;SDS011;8600;54.338;10.128;2022-09-09T12:17:54;2.65;;;0.90;;
16967;SDS011;8600;54.338;10.128;2022-09-09T12:20:32;5.65;;;1.70;;
16967;SDS011;8600;54.338;10.128;2022-09-09T12:23:05;3.28;;;0.80;;
16967;SDS011;8600;54.338;10.128;2022-09-09T12:25:49;2.67;;;0.80;;
16967;SDS011;8600;54.338;10.128;2022-09-09T12:28:26;2.30;;;0.90;;
16967;SDS011;8600;54.338;10.128;2022-09-09T12:31:06;3.30;;;1.10;;
16967;SDS011;8600;54.338;10.128;2022-09-09T12:33:39;3.03;;;1.10;;
16967;SDS011;8600;54.338;10.128;2022-09-09T12:36:09;3.45;;;0.80;;
16967;SDS011;8600;54.338;10.128;2022-09-09T12:38:39;4.20;;;0.70;;
16967;SDS011;8600;54.338;10.128;2022-09-09T12:41:15;4.05;;;0.93;;
16967;SDS011;8600;54.338;10.128;2022-09-09T12:43:47;2.47;;;0.90;;
16967;SDS011;8600;54.338;10.128;2022-09-09T12:46:18;3.42;;;1.00;;
16967;SDS011;8600;54.338;10.128;2022-09-09T12:48:51;3.80;;;0.90;;
16967;SDS011;8600;54.338;10.128;2022-09-09T12:51:21;3.10;;;0.98;;
16967;SDS011;8600;54.338;10.128;2022-09-09T12:53:53;3.40;;;0.75;;
16967;SDS011;8600;54.338;10.128;2022-09-09T12:56:21;2.70;;;0.80;;
16967;SDS011;8600;54.338;10.128;2022-09-09T12:58:53;4.75;;;0.75;;
16967;SDS011;8600;54.338;10.128;2022-09-09T13:01:22;3.05;;;0.70;;
16967;SDS011;8600;54.338;10.128;2022-09-09T13:03:51;1.80;;;0.70;;
16967;SDS011;8600;54.338;10.128;2022-09-09T13:06:19;3.95;;;0.70;;
16967;SDS011;8600;54.338;10.128;2022-09-09T13:08:48;2.10;;;0.70;;
16967;SDS011;8600;54.338;10.128;2022-09-09T13:11:17;4.75;;;1.15;;
16967;SDS011;8600;54.338;10.128;2022-09-09T13:13:50;2.42;;;0.73;;
16967;SDS011;8600;54.338;10.128;2022-09-09T13:16:22;4.55;;;1.10;;
16967;SDS011;8600;54.338;10.128;2022-09-09T13:18:56;3.58;;;1.13;;
16967;SDS011;8600;54.338;10.128;2022-09-09T13:21:33;5.32;;;1.70;;
16967;SDS011;8600;54.338;10.128;2022-09-09T13:24:03;3.55;;;1.20;;
16967;SDS011;8600;54.338;10.128;2022-09-09T13:26:32;4.85;;;0.90;;
16967;SDS011;8600;54.338;10.128;2022-09-09T13:29:16;3.15;;;0.90;;
16967;SDS011;8600;54.338;10.128;2022-09-09T13:31:44;4.35;;;0.93;;
16967;SDS011;8600;54.338;10.128;2022-09-09T13:34:12;2.88;;;0.70;;
16967;SDS011;8600;54.338;10.128;2022-09-09T13:36:40;2.78;;;0.80;;
16967;SDS011;8600;54.338;10.128;2022-09-09T13:39:12;4.07;;;1.20;;
16967;SDS011;8600;54.338;10.128;2022-09-09T13:41:42;4.13;;;1.00;;
16967;SDS011;8600;54.338;10.128;2022-09-09T13:44:17;3.80;;;0.85;;
16967;SDS011;8600;54.338;10.128;2022-09-09T13:46:58;3.90;;;0.90;;
16967;SDS011;8600;54.338;10.128;2022-09-09T13:49:27;3.38;;;1.10;;
16967;SDS011;8600;54.338;10.128;2022-09-09T13:52:03;5.75;;;1.10;;
16967;SDS011;8600;54.338;10.128;2022-09-09T13:54:32;3.35;;;1.10;;
16967;SDS011;8600;54.338;10.128;2022-09-09T13:57:00;9.45;;;3.95;;
16967;SDS011;8600;54.338;10.128;2022-09-09T13:59:28;5.55;;;1.30;;
16967;SDS011;8600;54.338;10.128;2022-09-09T14:01:56;4.55;;;2.00;;
16967;SDS011;8600;54.338;10.128;2022-09-09T14:04:23;5.88;;;2.00;;
16967;SDS011;8600;54.338;10.128;2022-09-09T14:06:50;7.13;;;2.22;;
16967;SDS011;8600;54.338;10.128;2022-09-09T14:09:18;3.85;;;1.08;;
16967;SDS011;8600;54.338;10.128;2022-09-09T14:11:45;2.83;;;1.02;;
16967;SDS011;8600;54.338;10.128;2022-09-09T14:14:12;4.82;;;1.00;;
16967;SDS011;8600;54.338;10.128;2022-09-09T14:16:41;4.45;;;1.20;;
16967;SDS011;8600;54.338;10.128;2022-09-09T14:19:08;5.30;;;1.25;;
16967;SDS011;8600;54.338;10.128;2022-09-09T14:21:35;3.28;;;1.05;;
16967;SDS011;8600;54.338;10.128;2022-09-09T14:24:02;4.85;;;1.20;;
16967;SDS011;8600;54.338;10.128;2022-09-09T14:26:29;5.03;;;1.10;;
16967;SDS011;8600;54.338;10.128;2022-09-09T14:28:56;4.45;;;1.02;;
16967;SDS011;8600;54.338;10.128;2022-09-09T14:31:23;2.58;;;0.88;;
16967;SDS011;8600;54.338;10.128;2022-09-09T14:33:52;4.75;;;1.45;;
16967;SDS011;8600;54.338;10.128;2022-09-09T14:36:19;4.47;;;1.20;;
16967;SDS011;8600;54.338;10.128;2022-09-09T14:38:46;5.15;;;1.10;;
16967;SDS011;8600;54.338;10.128;2022-09-09T14:41:14;3.88;;;1.10;;
16967;SDS011;8600;54.338;10.128;2022-09-09T14:43:43;2.20;;;0.80;;
16967;SDS011;8600;54.338;10.128;2022-09-09T14:46:10;2.75;;;0.57;;
16967;SDS011;8600;54.338;10.128;2022-09-09T14:48:39;2.05;;;0.50;;
16967;SDS011;8600;54.338;10.128;2022-09-09T14:51:08;3.22;;;0.68;;
16967;SDS011;8600;54.338;10.128;2022-09-09T14:53:38;3.42;;;0.98;;
16967;SDS011;8600;54.338;10.128;2022-09-09T14:56:06;3.00;;;1.10;;
16967;SDS011;8600;54.338;10.128;2022-09-09T14:58:34;4.28;;;0.93;;
16967;SDS011;8600;54.338;10.128;2022-09-09T15:01:02;4.25;;;1.20;;
16967;SDS011;8600;54.338;10.128;2022-09-09T15:03:30;7.50;;;1.08;;
16967;SDS011;8600;54.338;10.128;2022-09-09T15:05:57;4.45;;;1.13;;